sensor_id;sensor_type;location;lat;lon;timestamp;pressure;altitude;pressure_sealevel;temperature
76901;BMP280;65859;43.020;25.096;2023-06-14T00:02:13;98996.13;;;20.22
76901;BMP280;65859;43.020;25.096;2023-06-14T00:04:40;98991.94;;;20.17
76901;BMP280;65859;43.020;25.096;2023-06-14T00:07:07;98990.69;;;20.29
76901;BMP280;65859;43.020;25.096;2023-06-14T00:09:35;98991.63;;;20.04
76901;BMP280;65859;43.020;25.096;2023-06-14T00:12:01;98997.28;;;20.21
76901;BMP280;65859;43.020;25.096;2023-06-14T00:14:27;98984.22;;;20.16
76901;BMP280;65859;43.020;25.096;2023-06-14T00:16:53;98996.19;;;20.11
76901;BMP280;65859;43.020;25.096;2023-06-14T00:19:26;98992.19;;;20.33
76901;BMP280;65859;43.020;25.096;2023-06-14T00:21:52;98993.53;;;20.07
76901;BMP280;65859;43.020;25.096;2023-06-14T00:24:19;98984.56;;;20.25
76901;BMP280;65859;43.020;25.096;2023-06-14T00:26:46;98985.34;;;20.22
76901;BMP280;65859;43.020;25.096;2023-06-14T00:29:13;98994.34;;;19.06
76901;BMP280;65859;43.020;25.096;2023-06-14T00:31:39;98989.81;;;18.68
76901;BMP280;65859;43.020;25.096;2023-06-14T00:34:05;98989.78;;;19.07
76901;BMP280;65859;43.020;25.096;2023-06-14T00:36:32;98985.72;;;19.61
76901;BMP280;65859;43.020;25.096;2023-06-14T00:38:58;98990.91;;;19.97
76901;BMP280;65859;43.020;25.096;2023-06-14T00:41:24;98985.66;;;19.68
76901;BMP280;65859;43.020;25.096;2023-06-14T00:43:51;98984.03;;;19.85
76901;BMP280;65859;43.020;25.096;2023-06-14T00:46:18;98982.63;;;19.66
76901;BMP280;65859;43.020;25.096;2023-06-14T00:48:45;98977.06;;;19.95
76901;BMP280;65859;43.020;25.096;2023-06-14T00:51:11;98976.16;;;20.12
76901;BMP280;65859;43.020;25.096;2023-06-14T00:53:38;98974.22;;;20.64
76901;BMP280;65859;43.020;25.096;2023-06-14T00:56:06;98973.22;;;21.77
76901;BMP280;65859;43.020;25.096;2023-06-14T00:58:32;98965.72;;;21.61
76901;BMP280;65859;43.020;25.096;2023-06-14T01:00:59;98966.22;;;21.83
76901;BMP280;65859;43.020;25.096;2023-06-14T01:03:25;98967.06;;;20.85
76901;BMP280;65859;43.020;25.096;2023-06-14T01:05:59;98960.78;;;20.57
76901;BMP280;65859;43.020;25.096;2023-06-14T01:11:22;98952.22;;;19.69
76901;BMP280;65859;43.020;25.096;2023-06-14T01:13:52;98953.69;;;20.33
76901;BMP280;65859;43.020;25.096;2023-06-14T01:16:20;98950.69;;;20.20
76901;BMP280;65859;43.020;25.096;2023-06-14T01:18:46;98951.25;;;20.46
76901;BMP280;65859;43.020;25.096;2023-06-14T01:21:24;98945.28;;;20.24
76901;BMP280;65859;43.020;25.096;2023-06-14T01:23:51;98949.41;;;19.87
76901;BMP280;65859;43.020;25.096;2023-06-14T01:26:21;98951.38;;;18.81
76901;BMP280;65859;43.020;25.096;2023-06-14T01:28:49;98947.34;;;19.43
76901;BMP280;65859;43.020;25.096;2023-06-14T01:31:21;98946.47;;;19.64
76901;BMP280;65859;43.020;25.096;2023-06-14T01:33:49;98946.88;;;19.59
76901;BMP280;65859;43.020;25.096;2023-06-14T01:36:20;98946.84;;;19.69
76901;BMP280;65859;43.020;25.096;2023-06-14T01:38:47;98954.47;;;18.55
76901;BMP280;65859;43.020;25.096;2023-06-14T01:41:16;98952.91;;;18.82
76901;BMP280;65859;43.020;25.096;2023-06-14T01:43:44;98949.72;;;19.30
76901;BMP280;65859;43.020;25.096;2023-06-14T01:46:12;98945.09;;;19.34
76901;BMP280;65859;43.020;25.096;2023-06-14T01:48:39;98949.03;;;18.91
76901;BMP280;65859;43.020;25.096;2023-06-14T01:51:05;98957.16;;;18.80
76901;BMP280;65859;43.020;25.096;2023-06-14T01:53:33;98960.94;;;19.11
76901;BMP280;65859;43.020;25.096;2023-06-14T01:55:59;98953.34;;;18.70
76901;BMP280;65859;43.020;25.096;2023-06-14T01:58:27;98960.63;;;18.59
76901;BMP280;65859;43.020;25.096;2023-06-14T02:00:53;98967.78;;;19.33
76901;BMP280;65859;43.020;25.096;2023-06-14T02:03:22;98962.16;;;21.10
76901;BMP280;65859;43.020;25.096;2023-06-14T02:05:49;98959.28;;;21.24
76901;BMP280;65859;43.020;25.096;2023-06-14T02:08:15;98970.03;;;21.28
76901;BMP280;65859;43.020;25.096;2023-06-14T02:10:42;98961.66;;;21.19
76901;BMP280;65859;43.020;25.096;2023-06-14T02:13:08;98962.03;;;21.21
76901;BMP280;65859;43.020;25.096;2023-06-14T02:15:34;98967.31;;;21.31
76901;BMP280;65859;43.020;25.096;2023-06-14T02:18:04;98968.63;;;21.16
76901;BMP280;65859;43.020;25.096;2023-06-14T02:20:31;98960.72;;;21.32
76901;BMP280;65859;43.020;25.096;2023-06-14T02:22:58;98970.25;;;21.41
76901;BMP280;65859;43.020;25.096;2023-06-14T02:25:25;98973.78;;;21.38
76901;BMP280;65859;43.020;25.096;2023-06-14T02:27:54;98965.03;;;21.26
76901;BMP280;65859;43.020;25.096;2023-06-14T02:30:21;98975.56;;;21.17
76901;BMP280;65859;43.020;25.096;2023-06-14T02:32:47;98967.38;;;21.24
76901;BMP280;65859;43.020;25.096;2023-06-14T02:35:14;98978.09;;;21.31
76901;BMP280;65859;43.020;25.096;2023-06-14T02:37:41;98975.25;;;20.33
76901;BMP280;65859;43.020;25.096;2023-06-14T02:40:09;98981.69;;;19.91
76901;BMP280;65859;43.020;25.096;2023-06-14T02:42:35;98979.72;;;20.50
76901;BMP280;65859;43.020;25.096;2023-06-14T02:45:01;98976.06;;;21.39
76901;BMP280;65859;43.020;25.096;2023-06-14T02:47:30;98980.00;;;21.34
76901;BMP280;65859;43.020;25.096;2023-06-14T02:49:56;98984.72;;;21.27
76901;BMP280;65859;43.020;25.096;2023-06-14T02:52:23;98998.00;;;21.41
76901;BMP280;65859;43.020;25.096;2023-06-14T02:54:51;98996.34;;;21.20
76901;BMP280;65859;43.020;25.096;2023-06-14T02:57:18;98994.31;;;21.31
76901;BMP280;65859;43.020;25.096;2023-06-14T02:59:44;98997.78;;;21.28
76901;BMP280;65859;43.020;25.096;2023-06-14T03:02:10;99000.44;;;20.60
76901;BMP280;65859;43.020;25.096;2023-06-14T03:04:36;99003.38;;;20.77
76901;BMP280;65859;43.020;25.096;2023-06-14T03:07:05;99008.34;;;20.78
76901;BMP280;65859;43.020;25.096;2023-06-14T03:09:38;99011.28;;;20.01
76901;BMP280;65859;43.020;25.096;2023-06-14T03:12:06;99008.81;;;20.73
76901;BMP280;65859;43.020;25.096;2023-06-14T03:14:33;99018.06;;;20.20
76901;BMP280;65859;43.020;25.096;2023-06-14T03:16:59;99020.47;;;20.07
76901;BMP280;65859;43.020;25.096;2023-06-14T03:19:26;99023.78;;;21.15
76901;BMP280;65859;43.020;25.096;2023-06-14T03:21:53;99025.41;;;21.09
76901;BMP280;65859;43.020;25.096;2023-06-14T03:24:23;99018.44;;;20.70
76901;BMP280;65859;43.020;25.096;2023-06-14T03:26:50;99018.41;;;21.12
76901;BMP280;65859;43.020;25.096;2023-06-14T03:29:17;99025.94;;;20.52
76901;BMP280;65859;43.020;25.096;2023-06-14T03:32:00;99026.19;;;20.17
76901;BMP280;65859;43.020;25.096;2023-06-14T03:34:27;99018.91;;;20.99
76901;BMP280;65859;43.020;25.096;2023-06-14T03:36:53;99025.94;;;20.93
76901;BMP280;65859;43.020;25.096;2023-06-14T03:39:20;99023.78;;;21.12
76901;BMP280;65859;43.020;25.096;2023-06-14T03:41:46;99035.06;;;21.07
76901;BMP280;65859;43.020;25.096;2023-06-14T03:44:15;99030.47;;;21.00
76901;BMP280;65859;43.020;25.096;2023-06-14T03:46:42;99032.56;;;20.85
76901;BMP280;65859;43.020;25.096;2023-06-14T03:49:08;99032.69;;;21.12
76901;BMP280;65859;43.020;25.096;2023-06-14T03:51:35;99039.31;;;20.63
76901;BMP280;65859;43.020;25.096;2023-06-14T03:54:02;99031.59;;;21.06
76901;BMP280;65859;43.020;25.096;2023-06-14T03:56:28;99030.00;;;21.12
76901;BMP280;65859;43.020;25.096;2023-06-14T03:58:54;99039.25;;;21.11
76901;BMP280;65859;43.020;25.096;2023-06-14T04:01:21;99041.59;;;21.09
76901;BMP280;65859;43.020;25.096;2023-06-14T04:03:51;99043.53;;;21.09
76901;BMP280;65859;43.020;25.096;2023-06-14T04:06:18;99046.94;;;21.13
76901;BMP280;65859;43.020;25.096;2023-06-14T04:08:45;99043.22;;;20.99
76901;BMP280;65859;43.020;25.096;2023-06-14T04:11:11;99046.38;;;20.94
76901;BMP280;65859;43.020;25.096;2023-06-14T04:13:37;99049.28;;;21.07
76901;BMP280;65859;43.020;25.096;2023-06-14T04:16:05;99056.41;;;20.94
76901;BMP280;65859;43.020;25.096;2023-06-14T04:18:31;99053.22;;;21.02
76901;BMP280;65859;43.020;25.096;2023-06-14T04:20:57;99054.88;;;20.89
76901;BMP280;65859;43.020;25.096;2023-06-14T04:23:24;99059.09;;;20.94
76901;BMP280;65859;43.020;25.096;2023-06-14T04:25:50;99060.84;;;20.66
76901;BMP280;65859;43.020;25.096;2023-06-14T04:28:17;99060.63;;;20.91
76901;BMP280;65859;43.020;25.096;2023-06-14T04:30:46;99071.69;;;20.04
76901;BMP280;65859;43.020;25.096;2023-06-14T04:33:13;99064.56;;;20.83
76901;BMP280;65859;43.020;25.096;2023-06-14T04:35:39;99068.34;;;20.93
76901;BMP280;65859;43.020;25.096;2023-06-14T04:38:06;99076.31;;;20.59
76901;BMP280;65859;43.020;25.096;2023-06-14T04:40:36;99078.63;;;20.01
76901;BMP280;65859;43.020;25.096;2023-06-14T04:43:09;99080.72;;;20.90
76901;BMP280;65859;43.020;25.096;2023-06-14T04:45:38;99091.66;;;20.72
76901;BMP280;65859;43.020;25.096;2023-06-14T04:48:06;99086.38;;;20.55
76901;BMP280;65859;43.020;25.096;2023-06-14T04:50:32;99095.25;;;20.52
76901;BMP280;65859;43.020;25.096;2023-06-14T04:52:59;99089.94;;;20.41
76901;BMP280;65859;43.020;25.096;2023-06-14T04:55:25;99095.69;;;20.47
76901;BMP280;65859;43.020;25.096;2023-06-14T04:57:52;99089.69;;;20.77
76901;BMP280;65859;43.020;25.096;2023-06-14T05:00:21;99094.41;;;21.10
76901;BMP280;65859;43.020;25.096;2023-06-14T05:02:50;99095.16;;;21.11
76901;BMP280;65859;43.020;25.096;2023-06-14T05:05:19;99107.38;;;20.19
76901;BMP280;65859;43.020;25.096;2023-06-14T05:07:47;99089.53;;;20.94
76901;BMP280;65859;43.020;25.096;2023-06-14T05:10:13;99092.72;;;20.79
76901;BMP280;65859;43.020;25.096;2023-06-14T05:12:39;99106.97;;;20.24
76901;BMP280;65859;43.020;25.096;2023-06-14T05:15:06;99105.09;;;20.76
76901;BMP280;65859;43.020;25.096;2023-06-14T05:17:34;99098.38;;;20.95
76901;BMP280;65859;43.020;25.096;2023-06-14T05:20:02;99104.09;;;21.00
76901;BMP280;65859;43.020;25.096;2023-06-14T05:22:29;99117.16;;;21.09
76901;BMP280;65859;43.020;25.096;2023-06-14T05:24:55;99114.44;;;20.64
76901;BMP280;65859;43.020;25.096;2023-06-14T05:27:22;99120.66;;;21.06
76901;BMP280;65859;43.020;25.096;2023-06-14T05:29:48;99122.28;;;20.93
76901;BMP280;65859;43.020;25.096;2023-06-14T05:32:15;99117.22;;;21.02
76901;BMP280;65859;43.020;25.096;2023-06-14T05:34:43;99137.22;;;21.04
76901;BMP280;65859;43.020;25.096;2023-06-14T05:37:10;99126.09;;;21.02
76901;BMP280;65859;43.020;25.096;2023-06-14T05:39:36;99140.03;;;20.94
76901;BMP280;65859;43.020;25.096;2023-06-14T05:42:03;99138.38;;;21.03
76901;BMP280;65859;43.020;25.096;2023-06-14T05:44:29;99136.00;;;21.13
76901;BMP280;65859;43.020;25.096;2023-06-14T05:46:55;99142.69;;;20.42
76901;BMP280;65859;43.020;25.096;2023-06-14T05:49:22;99139.97;;;19.55
76901;BMP280;65859;43.020;25.096;2023-06-14T05:51:48;99133.38;;;19.73
76901;BMP280;65859;43.020;25.096;2023-06-14T05:54:15;99136.53;;;19.43
76901;BMP280;65859;43.020;25.096;2023-06-14T05:56:41;99140.19;;;20.03
76901;BMP280;65859;43.020;25.096;2023-06-14T05:59:07;99142.28;;;19.42
76901;BMP280;65859;43.020;25.096;2023-06-14T06:01:33;99142.81;;;20.21
76901;BMP280;65859;43.020;25.096;2023-06-14T06:04:02;99151.09;;;19.49
76901;BMP280;65859;43.020;25.096;2023-06-14T06:06:29;99138.78;;;19.70
76901;BMP280;65859;43.020;25.096;2023-06-14T06:08:55;99144.44;;;20.00
76901;BMP280;65859;43.020;25.096;2023-06-14T06:11:21;99150.28;;;19.77
76901;BMP280;65859;43.020;25.096;2023-06-14T06:13:47;99151.25;;;20.26
76901;BMP280;65859;43.020;25.096;2023-06-14T06:16:14;99158.16;;;20.31
76901;BMP280;65859;43.020;25.096;2023-06-14T06:18:40;99150.22;;;20.02
76901;BMP280;65859;43.020;25.096;2023-06-14T06:21:07;99157.06;;;20.21
76901;BMP280;65859;43.020;25.096;2023-06-14T06:23:33;99155.66;;;20.61
76901;BMP280;65859;43.020;25.096;2023-06-14T06:25:59;99151.59;;;20.91
76901;BMP280;65859;43.020;25.096;2023-06-14T06:28:26;99156.25;;;20.90
76901;BMP280;65859;43.020;25.096;2023-06-14T06:30:52;99156.50;;;20.51
76901;BMP280;65859;43.020;25.096;2023-06-14T06:33:19;99154.59;;;20.45
76901;BMP280;65859;43.020;25.096;2023-06-14T06:35:45;99161.69;;;20.21
76901;BMP280;65859;43.020;25.096;2023-06-14T06:38:14;99164.44;;;20.10
76901;BMP280;65859;43.020;25.096;2023-06-14T06:40:40;99159.47;;;20.67
76901;BMP280;65859;43.020;25.096;2023-06-14T06:43:06;99161.47;;;20.56
76901;BMP280;65859;43.020;25.096;2023-06-14T06:45:33;99169.03;;;20.79
76901;BMP280;65859;43.020;25.096;2023-06-14T06:47:59;99174.50;;;21.20
76901;BMP280;65859;43.020;25.096;2023-06-14T06:50:26;99162.50;;;20.80
76901;BMP280;65859;43.020;25.096;2023-06-14T06:52:52;99170.81;;;20.41
76901;BMP280;65859;43.020;25.096;2023-06-14T06:55:20;99156.22;;;21.39
76901;BMP280;65859;43.020;25.096;2023-06-14T06:57:46;99158.66;;;19.97
76901;BMP280;65859;43.020;25.096;2023-06-14T07:00:12;99160.97;;;20.13
76901;BMP280;65859;43.020;25.096;2023-06-14T07:02:39;99163.69;;;20.76
76901;BMP280;65859;43.020;25.096;2023-06-14T07:05:05;99160.69;;;20.59
76901;BMP280;65859;43.020;25.096;2023-06-14T07:07:32;99162.28;;;21.05
76901;BMP280;65859;43.020;25.096;2023-06-14T07:09:58;99161.38;;;21.63
76901;BMP280;65859;43.020;25.096;2023-06-14T07:12:26;99166.59;;;20.95
76901;BMP280;65859;43.020;25.096;2023-06-14T07:14:52;99170.69;;;20.62
76901;BMP280;65859;43.020;25.096;2023-06-14T07:17:18;99166.00;;;21.59
76901;BMP280;65859;43.020;25.096;2023-06-14T07:19:45;99171.56;;;22.13
76901;BMP280;65859;43.020;25.096;2023-06-14T07:22:11;99170.06;;;21.78
76901;BMP280;65859;43.020;25.096;2023-06-14T07:24:37;99170.97;;;21.98
76901;BMP280;65859;43.020;25.096;2023-06-14T07:27:04;99169.28;;;22.39
76901;BMP280;65859;43.020;25.096;2023-06-14T07:29:30;99172.50;;;22.30
76901;BMP280;65859;43.020;25.096;2023-06-14T07:31:56;99174.34;;;21.76
76901;BMP280;65859;43.020;25.096;2023-06-14T07:34:22;99171.41;;;21.59
76901;BMP280;65859;43.020;25.096;2023-06-14T07:36:49;99181.91;;;20.57
76901;BMP280;65859;43.020;25.096;2023-06-14T07:39:15;99176.44;;;21.23
76901;BMP280;65859;43.020;25.096;2023-06-14T07:41:43;99176.06;;;21.59
76901;BMP280;65859;43.020;25.096;2023-06-14T07:44:09;99167.16;;;21.62
76901;BMP280;65859;43.020;25.096;2023-06-14T07:46:36;99175.19;;;20.83
76901;BMP280;65859;43.020;25.096;2023-06-14T07:49:03;99166.22;;;21.42
76901;BMP280;65859;43.020;25.096;2023-06-14T07:51:29;99168.25;;;21.30
76901;BMP280;65859;43.020;25.096;2023-06-14T07:53:56;99174.13;;;21.18
76901;BMP280;65859;43.020;25.096;2023-06-14T07:56:22;99167.50;;;21.67
76901;BMP280;65859;43.020;25.096;2023-06-14T07:58:49;99167.50;;;21.98
76901;BMP280;65859;43.020;25.096;2023-06-14T08:01:15;99171.13;;;21.50
76901;BMP280;65859;43.020;25.096;2023-06-14T08:03:42;99178.97;;;21.38
76901;BMP280;65859;43.020;25.096;2023-06-14T08:06:09;99176.94;;;21.49
76901;BMP280;65859;43.020;25.096;2023-06-14T08:08:35;99179.28;;;21.81
76901;BMP280;65859;43.020;25.096;2023-06-14T08:11:01;99179.47;;;21.63
76901;BMP280;65859;43.020;25.096;2023-06-14T08:13:28;99183.31;;;21.24
76901;BMP280;65859;43.020;25.096;2023-06-14T08:15:54;99185.94;;;21.73
76901;BMP280;65859;43.020;25.096;2023-06-14T08:18:21;99173.91;;;20.43
76901;BMP280;65859;43.020;25.096;2023-06-14T08:20:47;99183.91;;;21.46
76901;BMP280;65859;43.020;25.096;2023-06-14T08:23:13;99182.75;;;21.81
76901;BMP280;65859;43.020;25.096;2023-06-14T08:25:40;99180.53;;;21.73
76901;BMP280;65859;43.020;25.096;2023-06-14T08:28:06;99179.06;;;21.64
76901;BMP280;65859;43.020;25.096;2023-06-14T08:30:32;99181.28;;;20.94
76901;BMP280;65859;43.020;25.096;2023-06-14T08:32:58;99180.56;;;20.83
76901;BMP280;65859;43.020;25.096;2023-06-14T08:35:25;99184.91;;;21.59
76901;BMP280;65859;43.020;25.096;2023-06-14T08:37:51;99184.75;;;21.40
76901;BMP280;65859;43.020;25.096;2023-06-14T08:40:20;99192.81;;;20.98
76901;BMP280;65859;43.020;25.096;2023-06-14T08:42:52;99193.75;;;21.22
76901;BMP280;65859;43.020;25.096;2023-06-14T08:45:20;99191.84;;;21.64
76901;BMP280;65859;43.020;25.096;2023-06-14T08:47:47;99192.63;;;21.61
76901;BMP280;65859;43.020;25.096;2023-06-14T08:50:25;99192.00;;;21.46
76901;BMP280;65859;43.020;25.096;2023-06-14T08:53:02;99197.81;;;21.41
76901;BMP280;65859;43.020;25.096;2023-06-14T08:55:29;99201.16;;;21.56
76901;BMP280;65859;43.020;25.096;2023-06-14T08:57:57;99204.59;;;21.60
76901;BMP280;65859;43.020;25.096;2023-06-14T09:00:25;99204.91;;;22.03
76901;BMP280;65859;43.020;25.096;2023-06-14T09:02:52;99208.66;;;21.79
76901;BMP280;65859;43.020;25.096;2023-06-14T09:05:24;99208.22;;;21.84
76901;BMP280;65859;43.020;25.096;2023-06-14T09:07:50;99212.03;;;22.47
76901;BMP280;65859;43.020;25.096;2023-06-14T09:10:17;99205.94;;;22.40
76901;BMP280;65859;43.020;25.096;2023-06-14T09:12:44;99209.94;;;21.67
76901;BMP280;65859;43.020;25.096;2023-06-14T09:15:11;99212.00;;;22.78
76901;BMP280;65859;43.020;25.096;2023-06-14T09:17:38;99218.34;;;22.68
76901;BMP280;65859;43.020;25.096;2023-06-14T09:20:06;99215.44;;;23.29
76901;BMP280;65859;43.020;25.096;2023-06-14T09:22:35;99223.88;;;22.84
76901;BMP280;65859;43.020;25.096;2023-06-14T09:25:02;99224.28;;;23.52
76901;BMP280;65859;43.020;25.096;2023-06-14T09:27:31;99222.00;;;24.79
76901;BMP280;65859;43.020;25.096;2023-06-14T09:29:57;99221.63;;;23.49
76901;BMP280;65859;43.020;25.096;2023-06-14T09:32:24;99220.81;;;23.72
76901;BMP280;65859;43.020;25.096;2023-06-14T09:34:50;99210.63;;;23.79
76901;BMP280;65859;43.020;25.096;2023-06-14T09:37:30;99210.31;;;23.11
76901;BMP280;65859;43.020;25.096;2023-06-14T09:39:57;99206.56;;;24.76
76901;BMP280;65859;43.020;25.096;2023-06-14T09:42:24;99203.81;;;24.43
76901;BMP280;65859;43.020;25.096;2023-06-14T09:44:55;99200.19;;;25.28
76901;BMP280;65859;43.020;25.096;2023-06-14T09:47:24;99199.50;;;25.81
76901;BMP280;65859;43.020;25.096;2023-06-14T09:49:51;99201.97;;;26.65
76901;BMP280;65859;43.020;25.096;2023-06-14T09:52:20;99201.63;;;26.75
76901;BMP280;65859;43.020;25.096;2023-06-14T09:54:47;99205.66;;;26.71
76901;BMP280;65859;43.020;25.096;2023-06-14T09:57:16;99203.88;;;27.77
76901;BMP280;65859;43.020;25.096;2023-06-14T09:59:47;99207.22;;;25.54
76901;BMP280;65859;43.020;25.096;2023-06-14T10:04:58;99207.25;;;26.21
76901;BMP280;65859;43.020;25.096;2023-06-14T10:07:27;99211.22;;;25.78
76901;BMP280;65859;43.020;25.096;2023-06-14T10:09:56;99195.53;;;27.06
76901;BMP280;65859;43.020;25.096;2023-06-14T10:12:22;99192.41;;;27.60
76901;BMP280;65859;43.020;25.096;2023-06-14T10:14:50;99196.03;;;26.19
76901;BMP280;65859;43.020;25.096;2023-06-14T10:22:46;99194.16;;;24.91
76901;BMP280;65859;43.020;25.096;2023-06-14T10:25:27;99193.91;;;25.60
76901;BMP280;65859;43.020;25.096;2023-06-14T10:30:38;99184.34;;;26.69
76901;BMP280;65859;43.020;25.096;2023-06-14T10:33:08;99184.19;;;27.07
76901;BMP280;65859;43.020;25.096;2023-06-14T10:35:36;99180.19;;;26.99
76901;BMP280;65859;43.020;25.096;2023-06-14T10:38:12;99182.53;;;26.88
76901;BMP280;65859;43.020;25.096;2023-06-14T10:40:39;99187.63;;;27.42
76901;BMP280;65859;43.020;25.096;2023-06-14T10:43:22;99181.72;;;27.22
76901;BMP280;65859;43.020;25.096;2023-06-14T10:46:13;99180.25;;;27.52
76901;BMP280;65859;43.020;25.096;2023-06-14T10:48:43;99174.66;;;27.86
76901;BMP280;65859;43.020;25.096;2023-06-14T10:51:21;99172.28;;;27.67
76901;BMP280;65859;43.020;25.096;2023-06-14T10:53:48;99183.66;;;28.91
76901;BMP280;65859;43.020;25.096;2023-06-14T10:56:28;99173.16;;;28.71
76901;BMP280;65859;43.020;25.096;2023-06-14T10:58:56;99170.88;;;27.84
76901;BMP280;65859;43.020;25.096;2023-06-14T11:04:17;99171.53;;;28.06
76901;BMP280;65859;43.020;25.096;2023-06-14T11:06:49;99174.06;;;26.01
76901;BMP280;65859;43.020;25.096;2023-06-14T11:12:04;99171.69;;;28.03
76901;BMP280;65859;43.020;25.096;2023-06-14T11:14:32;99163.44;;;28.43
76901;BMP280;65859;43.020;25.096;2023-06-14T11:16:58;99160.22;;;29.59
76901;BMP280;65859;43.020;25.096;2023-06-14T11:19:24;99153.13;;;28.56
76901;BMP280;65859;43.020;25.096;2023-06-14T11:21:52;99143.97;;;27.64
76901;BMP280;65859;43.020;25.096;2023-06-14T11:24:19;99146.00;;;27.91
76901;BMP280;65859;43.020;25.096;2023-06-14T11:26:47;99147.19;;;27.72
76901;BMP280;65859;43.020;25.096;2023-06-14T11:29:16;99143.97;;;27.11
76901;BMP280;65859;43.020;25.096;2023-06-14T11:31:46;99145.69;;;28.65
76901;BMP280;65859;43.020;25.096;2023-06-14T11:34:13;99140.38;;;28.71
76901;BMP280;65859;43.020;25.096;2023-06-14T11:36:39;99129.78;;;28.64
76901;BMP280;65859;43.020;25.096;2023-06-14T11:39:07;99129.88;;;29.06
76901;BMP280;65859;43.020;25.096;2023-06-14T11:41:44;99133.38;;;28.88
76901;BMP280;65859;43.020;25.096;2023-06-14T11:44:11;99133.44;;;28.70
76901;BMP280;65859;43.020;25.096;2023-06-14T11:46:38;99123.81;;;28.29
76901;BMP280;65859;43.020;25.096;2023-06-14T11:49:04;99121.25;;;27.76
76901;BMP280;65859;43.020;25.096;2023-06-14T11:51:34;99121.22;;;28.25
76901;BMP280;65859;43.020;25.096;2023-06-14T11:54:03;99114.72;;;28.87
76901;BMP280;65859;43.020;25.096;2023-06-14T11:56:30;99116.34;;;28.02
76901;BMP280;65859;43.020;25.096;2023-06-14T11:58:58;99108.97;;;28.39
76901;BMP280;65859;43.020;25.096;2023-06-14T12:01:24;99109.81;;;28.00
76901;BMP280;65859;43.020;25.096;2023-06-14T12:03:53;99115.78;;;28.44
76901;BMP280;65859;43.020;25.096;2023-06-14T12:06:27;99106.38;;;28.26
76901;BMP280;65859;43.020;25.096;2023-06-14T12:08:59;99101.72;;;27.78
76901;BMP280;65859;43.020;25.096;2023-06-14T12:11:32;99100.47;;;26.17
76901;BMP280;65859;43.020;25.096;2023-06-14T12:13:59;99105.28;;;27.56
76901;BMP280;65859;43.020;25.096;2023-06-14T12:16:31;99100.09;;;27.89
76901;BMP280;65859;43.020;25.096;2023-06-14T12:19:07;99096.72;;;27.85
76901;BMP280;65859;43.020;25.096;2023-06-14T12:21:34;99098.00;;;27.93
76901;BMP280;65859;43.020;25.096;2023-06-14T12:24:04;99095.44;;;26.28
76901;BMP280;65859;43.020;25.096;2023-06-14T12:26:32;99093.28;;;25.98
76901;BMP280;65859;43.020;25.096;2023-06-14T12:28:59;99095.38;;;26.06
76901;BMP280;65859;43.020;25.096;2023-06-14T12:31:26;99088.00;;;26.41
76901;BMP280;65859;43.020;25.096;2023-06-14T12:33:52;99086.38;;;26.31
76901;BMP280;65859;43.020;25.096;2023-06-14T12:36:20;99077.75;;;26.11
76901;BMP280;65859;43.020;25.096;2023-06-14T12:38:46;99070.94;;;26.28
76901;BMP280;65859;43.020;25.096;2023-06-14T12:41:12;99069.75;;;26.85
76901;BMP280;65859;43.020;25.096;2023-06-14T12:43:40;99065.16;;;26.61
76901;BMP280;65859;43.020;25.096;2023-06-14T12:46:06;99060.19;;;27.74
76901;BMP280;65859;43.020;25.096;2023-06-14T12:48:32;99060.16;;;25.77
76901;BMP280;65859;43.020;25.096;2023-06-14T12:51:01;99054.13;;;25.95
76901;BMP280;65859;43.020;25.096;2023-06-14T12:53:27;99059.63;;;25.57
76901;BMP280;65859;43.020;25.096;2023-06-14T12:55:55;99059.81;;;25.50
76901;BMP280;65859;43.020;25.096;2023-06-14T12:58:21;99049.59;;;26.39
76901;BMP280;65859;43.020;25.096;2023-06-14T13:00:49;99051.66;;;25.75
76901;BMP280;65859;43.020;25.096;2023-06-14T13:03:16;99035.78;;;25.86
76901;BMP280;65859;43.020;25.096;2023-06-14T13:05:42;99041.88;;;25.90
76901;BMP280;65859;43.020;25.096;2023-06-14T13:08:09;99038.28;;;25.30
76901;BMP280;65859;43.020;25.096;2023-06-14T13:10:35;99037.88;;;25.57
76901;BMP280;65859;43.020;25.096;2023-06-14T13:13:01;99040.66;;;25.15
76901;BMP280;65859;43.020;25.096;2023-06-14T13:15:28;99040.59;;;25.03
76901;BMP280;65859;43.020;25.096;2023-06-14T13:17:54;99047.84;;;25.73
76901;BMP280;65859;43.020;25.096;2023-06-14T13:20:21;99028.25;;;25.90
76901;BMP280;65859;43.020;25.096;2023-06-14T13:22:47;99035.59;;;25.55
76901;BMP280;65859;43.020;25.096;2023-06-14T13:25:13;99030.59;;;25.67
76901;BMP280;65859;43.020;25.096;2023-06-14T13:27:41;99036.53;;;25.74
76901;BMP280;65859;43.020;25.096;2023-06-14T13:30:08;99026.63;;;25.17
76901;BMP280;65859;43.020;25.096;2023-06-14T13:32:35;99030.56;;;25.54
76901;BMP280;65859;43.020;25.096;2023-06-14T13:35:01;99030.53;;;27.05
76901;BMP280;65859;43.020;25.096;2023-06-14T13:37:30;99029.38;;;25.42
76901;BMP280;65859;43.020;25.096;2023-06-14T13:39:56;99027.84;;;25.54
76901;BMP280;65859;43.020;25.096;2023-06-14T13:42:22;99029.78;;;25.28
76901;BMP280;65859;43.020;25.096;2023-06-14T13:44:49;99017.28;;;25.31
76901;BMP280;65859;43.020;25.096;2023-06-14T13:47:17;99017.72;;;25.80
76901;BMP280;65859;43.020;25.096;2023-06-14T13:49:43;99016.56;;;25.81
76901;BMP280;65859;43.020;25.096;2023-06-14T13:52:09;99017.50;;;25.87
76901;BMP280;65859;43.020;25.096;2023-06-14T13:54:37;99020.34;;;25.71
76901;BMP280;65859;43.020;25.096;2023-06-14T13:57:03;99016.72;;;25.10
76901;BMP280;65859;43.020;25.096;2023-06-14T13:59:31;99024.09;;;24.97
76901;BMP280;65859;43.020;25.096;2023-06-14T14:01:58;99018.56;;;25.13
76901;BMP280;65859;43.020;25.096;2023-06-14T14:04:25;99019.81;;;25.38
76901;BMP280;65859;43.020;25.096;2023-06-14T14:06:51;99021.38;;;25.99
76901;BMP280;65859;43.020;25.096;2023-06-14T14:09:17;99016.75;;;25.86
76901;BMP280;65859;43.020;25.096;2023-06-14T14:11:43;99019.91;;;25.85
76901;BMP280;65859;43.020;25.096;2023-06-14T14:14:10;99017.06;;;25.12
76901;BMP280;65859;43.020;25.096;2023-06-14T14:16:36;99015.34;;;25.31
76901;BMP280;65859;43.020;25.096;2023-06-14T14:19:03;99005.03;;;25.39